Orbital elements of IRIDIUM 33 DEB
| Launched | 13 September 1997 |
| Flight ended | – |
| Launch site | Tyuratam Missile and Space Center, Kazakhstan (Also known as Baikonur Cosmodrome) |
| Owner | United States |
| NORAD ID | 34525 |
| Date fetched |
Epoch osculation |
Inc. [°] |
Ecc. | RA asc node [hr] |
Arg Peri. [°] |
Mean anom [°] |
Mean motion [rev/day] |
Abs. mag |
| Date fetched |
Epoch osculation |
Inc. [°] |
Ecc. | RA asc node [hr] |
Arg Peri. [°] |
Mean anom [°] |
Mean motion [rev/day] |
Abs. mag |
| 2026 May 07 17:58 | 2026 May 05 02:26:50 | 86.3740 | 0.00044 | 23.0438 | 7.5346 | 148.0643 | 14.43297 | – |
| 2026 May 06 17:57 | 2026 May 05 02:26:50 | 86.3740 | 0.00044 | 23.0438 | 7.5346 | 148.0643 | 14.43297 | – |
| 2026 May 05 17:57 | 2026 May 05 02:26:50 | 86.3740 | 0.00044 | 23.0438 | 7.5346 | 148.0643 | 14.43297 | – |
| 2026 May 04 17:57 | 2026 Apr 30 09:24:51 | 86.3748 | 0.00050 | 23.1778 | 20.4829 | 148.0643 | 14.43297 | – |
| 2026 May 03 17:57 | 2026 Apr 30 09:24:51 | 86.3748 | 0.00050 | 23.1778 | 20.4829 | 148.0643 | 14.43297 | – |
| 2026 May 02 17:57 | 2026 Apr 30 09:24:51 | 86.3748 | 0.00050 | 23.1778 | 20.4829 | 148.0643 | 14.43297 | – |
| 2026 May 01 17:56 | 2026 Apr 30 09:24:51 | 86.3748 | 0.00050 | 23.1778 | 20.4829 | 148.0643 | 14.43297 | – |
| 2026 Apr 30 17:56 | 2026 Apr 30 09:24:51 | 86.3748 | 0.00050 | 23.1778 | 20.4829 | 148.0643 | 14.43297 | – |
| 2026 Apr 29 17:57 | 2026 Apr 24 10:03:03 | 86.3756 | 0.00057 | 23.3478 | 35.3357 | 148.0643 | 14.43297 | – |
| 2026 Apr 28 17:56 | 2026 Apr 24 10:03:03 | 86.3756 | 0.00057 | 23.3478 | 35.3357 | 148.0643 | 14.43297 | – |
| 2026 Apr 27 17:58 | 2026 Apr 24 10:03:03 | 86.3756 | 0.00057 | 23.3478 | 35.3357 | 148.0643 | 14.43297 | – |
| 2026 Apr 26 17:58 | 2026 Apr 24 10:03:03 | 86.3756 | 0.00057 | 23.3478 | 35.3357 | 148.0643 | 14.43297 | – |
| 2026 Apr 25 17:58 | 2026 Apr 24 10:03:03 | 86.3756 | 0.00057 | 23.3478 | 35.3357 | 148.0643 | 14.43297 | – |
| 2026 Apr 24 17:59 | 2026 Apr 24 10:03:03 | 86.3756 | 0.00057 | 23.3478 | 35.3357 | 148.0643 | 14.43297 | – |
| 2026 Apr 23 17:57 | 2026 Apr 19 10:30:31 | 86.3761 | 0.00061 | 23.4895 | 47.0375 | 148.0643 | 14.43297 | – |
| 2026 Apr 22 17:57 | 2026 Apr 19 10:30:31 | 86.3761 | 0.00061 | 23.4895 | 47.0375 | 148.0643 | 14.43297 | – |
| 2026 Apr 21 17:57 | 2026 Apr 19 10:30:31 | 86.3761 | 0.00061 | 23.4895 | 47.0375 | 148.0643 | 14.43297 | – |
| 2026 Apr 20 17:57 | 2026 Apr 19 10:30:31 | 86.3761 | 0.00061 | 23.4895 | 47.0375 | 148.0643 | 14.43297 | – |
| 2026 Apr 19 17:58 | 2026 Apr 19 10:30:31 | 86.3761 | 0.00061 | 23.4895 | 47.0375 | 148.0643 | 14.43297 | – |
| 2026 Apr 18 17:56 | 2026 Apr 13 03:00:35 | 86.3770 | 0.00065 | 23.6691 | 61.0511 | 148.0643 | 14.43297 | – |
| 2026 Apr 16 17:57 | 2026 Apr 13 03:00:35 | 86.3770 | 0.00065 | 23.6691 | 61.0511 | 148.0643 | 14.43297 | – |
| 2026 Apr 14 17:57 | 2026 Apr 13 03:00:35 | 86.3770 | 0.00065 | 23.6691 | 61.0511 | 148.0643 | 14.43297 | – |
| 2026 Apr 13 17:57 | 2026 Apr 13 03:00:35 | 86.3770 | 0.00065 | 23.6691 | 61.0511 | 148.0643 | 14.43297 | – |
| 2026 Apr 12 17:57 | 2026 Apr 08 11:36:38 | 86.3775 | 0.00067 | 23.8011 | 71.0055 | 148.0643 | 14.43297 | – |
| 2026 Apr 11 17:57 | 2026 Apr 08 11:36:38 | 86.3775 | 0.00067 | 23.8011 | 71.0055 | 148.0643 | 14.43297 | – |
| 2026 Apr 10 17:58 | 2026 Apr 08 11:36:38 | 86.3775 | 0.00067 | 23.8011 | 71.0055 | 148.0643 | 14.43297 | – |